createdAt,value
2019-03-21T00:04:00.985Z,46.9
2019-03-21T00:09:01.020Z,47
2019-03-21T00:14:07.568Z,47.1
2019-03-21T00:19:00.895Z,47.2
2019-03-21T00:24:00.914Z,45.9
2019-03-21T00:29:00.895Z,45.7
2019-03-21T00:34:00.910Z,45.7
2019-03-21T00:39:00.883Z,46.4
2019-03-21T00:44:00.861Z,46.9
2019-03-21T00:49:00.856Z,47
2019-03-21T00:54:00.834Z,47.1
2019-03-21T00:59:00.890Z,47.1
2019-03-21T01:04:00.883Z,47.2
2019-03-21T01:09:00.840Z,47.4
2019-03-21T01:14:00.850Z,47.4
2019-03-21T01:19:00.876Z,47.2
2019-03-21T01:24:00.882Z,46.3
2019-03-21T01:29:00.859Z,46.5
2019-03-21T01:34:00.802Z,47.2
2019-03-21T01:39:00.825Z,47.4
2019-03-21T01:44:00.831Z,47.6
2019-03-21T01:49:00.804Z,47.6
2019-03-21T01:54:00.814Z,47.7
2019-03-21T01:59:00.788Z,47.8
2019-03-21T02:04:00.840Z,47.8
2019-03-21T02:09:00.792Z,47.9
2019-03-21T02:14:00.753Z,48
2019-03-21T02:19:00.778Z,48
2019-03-21T02:24:00.763Z,47.4
2019-03-21T02:29:00.810Z,47.3
2019-03-21T02:34:00.762Z,48
2019-03-21T02:39:00.766Z,48.1
2019-03-21T02:44:00.764Z,48.2
2019-03-21T02:49:00.765Z,48.3
2019-03-21T02:54:00.756Z,48.4
2019-03-21T02:59:00.756Z,48.4
2019-03-21T03:04:00.766Z,48.6
2019-03-21T03:09:00.774Z,48.6
2019-03-21T03:14:04.942Z,48.7
2019-03-21T03:19:00.719Z,48.8
2019-03-21T03:24:00.720Z,48.9
2019-03-21T03:29:00.730Z,48.9
2019-03-21T03:34:00.758Z,49
2019-03-21T03:39:00.694Z,48.8
2019-03-21T03:44:00.702Z,49
2019-03-21T03:49:00.717Z,49.4
2019-03-21T03:54:00.717Z,49.8
2019-03-21T03:59:00.676Z,49.7
2019-03-21T04:04:00.704Z,49.6
2019-03-21T04:09:00.688Z,49.7
2019-03-21T04:14:00.719Z,49.8
2019-03-21T04:19:00.704Z,49.9
2019-03-21T04:24:00.805Z,50
2019-03-21T04:29:00.687Z,50.2
2019-03-21T04:34:00.631Z,50.1
2019-03-21T04:39:00.657Z,50.2
2019-03-21T04:44:00.614Z,50.2
2019-03-21T04:49:00.579Z,50.2
2019-03-21T04:54:00.644Z,50.3
2019-03-21T04:59:00.605Z,50.8
2019-03-21T05:04:00.653Z,50.8
2019-03-21T05:09:00.581Z,50.8
2019-03-21T05:14:00.570Z,50.8
2019-03-21T05:19:00.558Z,50.5
2019-03-21T05:24:00.553Z,50.7
2019-03-21T05:29:00.609Z,50.7
2019-03-21T05:34:00.630Z,50.7
2019-03-21T05:39:00.608Z,50.7
2019-03-21T05:44:00.529Z,50.6
2019-03-21T05:49:00.645Z,50.6
2019-03-21T05:54:00.580Z,50.7
2019-03-21T05:59:00.550Z,50.6
2019-03-21T06:04:00.602Z,50.6
2019-03-21T06:09:00.714Z,55.2
2019-03-21T06:14:00.530Z,52.7
2019-03-21T06:19:00.568Z,51.9
2019-03-21T06:24:00.596Z,52.1
2019-03-21T06:29:00.506Z,51.8
2019-03-21T06:34:00.530Z,51.5
2019-03-21T06:39:00.576Z,51.3
2019-03-21T06:44:00.447Z,50.9
2019-03-21T06:49:00.474Z,51.1
2019-03-21T06:54:00.466Z,51
2019-03-21T06:59:00.493Z,51.3
2019-03-21T07:04:07.834Z,51.4
2019-03-21T07:09:00.471Z,51.3
2019-03-21T07:14:00.470Z,51.1
2019-03-21T07:19:00.417Z,51.1
2019-03-21T07:24:00.490Z,50.9
2019-03-21T07:29:00.403Z,51.1
2019-03-21T07:34:00.425Z,50.7
2019-03-21T07:39:00.751Z,50.7
2019-03-21T07:44:00.413Z,50.7
2019-03-21T07:49:00.432Z,50.6
2019-03-21T07:54:00.421Z,50.6
2019-03-21T07:59:00.386Z,50.7
2019-03-21T08:04:03.619Z,50.8
2019-03-21T08:09:00.423Z,50.8
2019-03-21T08:14:00.378Z,51
2019-03-21T08:19:00.348Z,51
2019-03-21T08:24:00.375Z,51.2
2019-03-21T08:29:00.490Z,51.3
2019-03-21T08:34:00.351Z,52
2019-03-21T08:39:00.338Z,51.4
2019-03-21T08:44:00.338Z,52.1
2019-03-21T08:49:00.326Z,51.5
2019-03-21T08:54:00.328Z,51.6
2019-03-21T08:59:00.326Z,51.7
2019-03-21T09:04:00.411Z,51.6
2019-03-21T09:09:00.354Z,51.5
2019-03-21T09:14:00.317Z,51.6
2019-03-21T09:19:00.325Z,51.6
2019-03-21T09:24:00.328Z,51.5
2019-03-21T09:29:00.275Z,51.6
2019-03-21T09:34:00.304Z,51.7
2019-03-21T09:39:00.345Z,51.8
2019-03-21T09:44:00.261Z,52
2019-03-21T09:49:00.261Z,52.1
2019-03-21T09:54:10.210Z,52.3
2019-03-21T09:59:00.257Z,52.4
2019-03-21T10:04:00.251Z,52.4
2019-03-21T10:09:00.278Z,52.5
2019-03-21T10:14:00.244Z,52.6
2019-03-21T10:19:00.255Z,52.6
2019-03-21T10:24:00.227Z,52.7
2019-03-21T10:29:00.288Z,52.5
2019-03-21T10:34:00.224Z,52.5
2019-03-21T10:39:00.284Z,52.2
2019-03-21T10:44:00.240Z,51.8
2019-03-21T10:49:00.172Z,51.3
2019-03-21T10:54:00.212Z,51.2
2019-03-21T10:59:00.185Z,50.5
2019-03-21T11:04:00.221Z,50.4
2019-03-21T11:09:00.176Z,50.3
2019-03-21T11:14:00.181Z,50.2
2019-03-21T11:19:00.271Z,50.2
2019-03-21T11:24:00.195Z,50.3
2019-03-21T11:29:00.163Z,50.4
2019-03-21T11:34:00.138Z,50.5
2019-03-21T11:39:00.173Z,50.6
2019-03-21T11:44:00.213Z,50.8
2019-03-21T11:49:01.590Z,50.8
2019-03-21T11:54:00.131Z,51
2019-03-21T11:59:00.200Z,50.9
2019-03-21T12:04:00.151Z,50.9
2019-03-21T12:09:00.131Z,51
2019-03-21T12:14:00.157Z,51.1
2019-03-21T12:19:00.151Z,51.3
2019-03-21T12:24:00.075Z,51.4
2019-03-21T12:29:00.138Z,51.5
2019-03-21T12:34:00.133Z,51.6
2019-03-21T12:39:00.071Z,51.7
2019-03-21T12:44:00.091Z,51.5
2019-03-21T12:49:00.140Z,51.4
2019-03-21T12:54:00.135Z,52
2019-03-21T12:59:00.058Z,51.9
2019-03-21T13:04:00.064Z,50.8
2019-03-21T13:09:00.071Z,50.8
2019-03-21T13:14:00.046Z,49.5
2019-03-21T13:19:00.073Z,49.4
2019-03-21T13:24:00.066Z,47.8
2019-03-21T13:29:00.045Z,48.4
2019-03-21T13:34:00.083Z,48.2
2019-03-21T13:39:00.045Z,46.3
2019-03-21T13:44:00.018Z,46.2
2019-03-21T13:49:00.003Z,47
2019-03-21T13:54:00.050Z,47
2019-03-21T13:59:00.009Z,45.6
2019-03-21T14:04:02.234Z,44.7
2019-03-21T14:09:01.616Z,45.4
2019-03-21T14:14:00.024Z,44.9
2019-03-21T14:19:00.032Z,44.6
2019-03-21T14:23:59.993Z,45.1
2019-03-21T14:29:13.145Z,45.7
2019-03-21T14:34:00.009Z,46.3
2019-03-21T14:38:59.961Z,46.3
2019-03-21T14:43:59.987Z,46.5
2019-03-21T14:48:59.943Z,46.6
2019-03-21T14:53:59.939Z,46.7
2019-03-21T14:59:00.001Z,47.2
2019-03-21T15:04:00.036Z,47.3
2019-03-21T15:08:59.953Z,47.7
2019-03-21T15:13:59.955Z,47.8
2019-03-21T15:18:59.946Z,47.9
2019-03-21T15:24:00.196Z,48.1
2019-03-21T15:28:59.920Z,48.2
2019-03-21T15:33:59.931Z,48.5
2019-03-21T15:38:59.914Z,48.5
2019-03-21T15:43:59.882Z,48.8
2019-03-21T15:48:59.928Z,49
2019-03-21T15:53:59.998Z,49.1
2019-03-21T15:58:59.901Z,49.3
2019-03-21T16:03:59.886Z,49.4
2019-03-21T16:08:59.849Z,49.5
2019-03-21T16:13:59.866Z,49.6
2019-03-21T16:18:59.924Z,49.9
2019-03-21T16:24:06.081Z,50
2019-03-21T16:29:00.632Z,50.2
2019-03-21T16:34:00.660Z,50.3
2019-03-21T16:39:00.650Z,50.5
2019-03-21T16:44:00.589Z,51.2
2019-03-21T16:49:00.617Z,50.7
2019-03-21T16:54:00.607Z,50.9
2019-03-21T16:59:00.598Z,51
2019-03-21T17:04:01.327Z,51.1
2019-03-21T17:09:01.337Z,51.2
2019-03-21T17:14:01.355Z,51.3
2019-03-21T17:19:01.422Z,51.4
2019-03-21T17:24:01.395Z,51.5
2019-03-21T17:29:01.276Z,51.6
2019-03-21T17:34:04.446Z,51.6
2019-03-21T17:39:01.305Z,51.7
2019-03-21T17:44:01.299Z,51.8
2019-03-21T17:49:01.277Z,51.9
2019-03-21T17:54:01.258Z,52
2019-03-21T17:59:01.298Z,52.1
2019-03-21T18:04:01.252Z,52.1
2019-03-21T18:09:01.247Z,52.2
2019-03-21T18:14:01.329Z,52.3
2019-03-21T18:19:01.249Z,52.4
2019-03-21T18:24:01.232Z,52.4
2019-03-21T18:29:01.315Z,52.5
2019-03-21T18:34:01.212Z,52.6
2019-03-21T18:39:01.203Z,52.6
2019-03-21T18:44:01.267Z,52.8
2019-03-21T18:49:01.205Z,52.9
2019-03-21T18:54:01.200Z,53
2019-03-21T18:59:01.211Z,55.6
2019-03-21T19:04:01.212Z,54.7
2019-03-21T19:09:01.169Z,54.4
2019-03-21T19:14:01.226Z,54.2
2019-03-21T19:19:01.164Z,54.2
2019-03-21T19:24:01.490Z,54.1
2019-03-21T19:29:01.144Z,54.1
2019-03-21T19:34:01.182Z,54.1
2019-03-21T19:39:01.156Z,54.6
2019-03-21T19:44:01.184Z,54.2
2019-03-21T19:49:01.111Z,54.3
2019-03-21T19:54:01.126Z,54.4
2019-03-21T19:59:01.462Z,54.4
2019-03-21T20:04:01.107Z,54.5
2019-03-21T20:09:01.100Z,54.5
2019-03-21T20:14:04.368Z,54.5
2019-03-21T20:19:01.142Z,54.6
2019-03-21T20:24:01.221Z,54.6
2019-03-21T20:29:01.101Z,54.3
2019-03-21T20:34:01.107Z,55
2019-03-21T20:39:01.061Z,55.3
2019-03-21T20:44:01.064Z,55.5
2019-03-21T20:49:01.387Z,55.7
2019-03-21T20:54:01.071Z,56
2019-03-21T20:59:01.038Z,56.3
2019-03-21T21:04:01.100Z,56.4
2019-03-21T21:09:01.042Z,56.4
2019-03-21T21:14:01.048Z,56.4
2019-03-21T21:19:01.033Z,56.4
2019-03-21T21:24:01.077Z,56.5
2019-03-21T21:29:01.037Z,56.8
2019-03-21T21:34:01.027Z,57.1
2019-03-21T21:39:00.994Z,57.1
2019-03-21T21:44:01.019Z,57.1
2019-03-21T21:49:01.028Z,57
2019-03-21T21:54:01.040Z,57.1
2019-03-21T21:59:01.015Z,57.3
2019-03-21T22:04:05.382Z,57.6
2019-03-21T22:09:01.020Z,57.9
2019-03-21T22:14:00.994Z,58
2019-03-21T22:19:00.986Z,57.9
2019-03-21T22:24:00.983Z,57.7
2019-03-21T22:29:01.011Z,57.6
2019-03-21T22:34:00.977Z,57.6
2019-03-21T22:39:00.988Z,57.6
2019-03-21T22:44:00.934Z,57.7
2019-03-21T22:49:01.008Z,58
2019-03-21T22:54:00.968Z,57.9
2019-03-21T22:59:00.948Z,57.9
2019-03-21T23:04:03.197Z,57.9
2019-03-21T23:09:00.958Z,57.9
2019-03-21T23:14:00.904Z,57.9
2019-03-21T23:19:00.942Z,57.9
2019-03-21T23:24:00.894Z,57.9
2019-03-21T23:29:00.894Z,57.9
2019-03-21T23:34:00.939Z,58
2019-03-21T23:39:00.948Z,58.1
2019-03-21T23:44:00.870Z,58.1
2019-03-21T23:49:00.914Z,58.1
2019-03-21T23:54:00.936Z,58.1
2019-03-21T23:59:00.880Z,58.2
